Decoded Metar for EIDW (DUBLIN in IRELAND) (IATA:DUB) | Meteo·Mobile Aviation Weather
aviador You're here:

EIDW Decoded Metar

DUBLIN in IRELAND
Report Time2018-09-25 14:30:00
UTC Time2018-09-25 14:39:18
Flight Rules vfr VFR
Wind210° at 12 kt
W.Decomp.*RWY 16: 7.1 kt HW 9.7 kt RCW
RWY 28: 4.9 kt HW 11 kt LCW
W.Rank210° ranks 8
Current wind is above 210° avg. (11.5)
Visibility9999 m
Phenomena:N/A
Clouds:Few 025 Hf
Broken 050 Hf
Expected CloudBase > 2,800 ft AGL from Temp-Dew spread
Ceiling5,000 ft
Temp15°C (ISA 0)
Dew Point08°C (63% RH)
AAT10.2°C
QNH1030 hPa
Density Alt-125 ft
Elevation242 ft
Report Wrong Elevation
Raw Report
METAR EIDW 251430Z 21012KT 180V250 9999 FEW025 BKN050 15/08 Q1030 NOSIG=

Extra information for EIDW:More info

Metar Taf Metar & Taf Last 4 Metars F.Rules Stats Wind Profile Meteogram Temp Stats Airport Information Weather charts Add Link Nearby VenuesMetar ALERT Operation Metar Decoded Social comments